sensor_id;sensor_type;location;lat;lon;timestamp;pressure;altitude;pressure_sealevel;temperature;humidity
58622;BME280;44389;51.578;5.456;2023-02-11T00:01:28;103356.41;;;4.82;100.00
58622;BME280;44389;51.578;5.456;2023-02-11T00:03:54;103352.31;;;4.84;100.00
58622;BME280;44389;51.578;5.456;2023-02-11T00:06:19;103351.44;;;4.83;100.00
58622;BME280;44389;51.578;5.456;2023-02-11T00:08:45;103343.91;;;4.85;100.00
58622;BME280;44389;51.578;5.456;2023-02-11T00:11:15;103345.59;;;4.84;100.00
58622;BME280;44389;51.578;5.456;2023-02-11T00:13:42;103347.34;;;4.85;100.00
58622;BME280;44389;51.578;5.456;2023-02-11T00:16:10;103346.59;;;4.86;100.00
58622;BME280;44389;51.578;5.456;2023-02-11T00:18:36;103339.69;;;4.85;100.00
58622;BME280;44389;51.578;5.456;2023-02-11T00:21:09;103334.56;;;4.85;100.00
58622;BME280;44389;51.578;5.456;2023-02-11T00:23:36;103340.47;;;4.84;100.00
58622;BME280;44389;51.578;5.456;2023-02-11T00:26:02;103345.59;;;4.84;100.00
58622;BME280;44389;51.578;5.456;2023-02-11T00:28:27;103337.13;;;4.85;100.00
58622;BME280;44389;51.578;5.456;2023-02-11T00:30:56;103335.19;;;4.83;100.00
58622;BME280;44389;51.578;5.456;2023-02-11T00:33:22;103335.38;;;4.84;100.00
58622;BME280;44389;51.578;5.456;2023-02-11T00:35:48;103331.13;;;4.85;100.00
58622;BME280;44389;51.578;5.456;2023-02-11T00:38:13;103325.16;;;4.84;100.00
58622;BME280;44389;51.578;5.456;2023-02-11T00:40:38;103325.16;;;4.84;100.00
58622;BME280;44389;51.578;5.456;2023-02-11T00:43:04;103322.59;;;4.84;100.00
58622;BME280;44389;51.578;5.456;2023-02-11T00:45:29;103334.44;;;4.84;100.00
58622;BME280;44389;51.578;5.456;2023-02-11T00:47:55;103334.31;;;4.82;100.00
58622;BME280;44389;51.578;5.456;2023-02-11T00:50:20;103327.53;;;4.83;100.00
58622;BME280;44389;51.578;5.456;2023-02-11T00:52:45;103325.91;;;4.83;100.00
58622;BME280;44389;51.578;5.456;2023-02-11T00:55:11;103327.53;;;4.83;100.00
58622;BME280;44389;51.578;5.456;2023-02-11T00:57:36;103315.66;;;4.83;100.00
58622;BME280;44389;51.578;5.456;2023-02-11T01:00:03;103321.53;;;4.82;100.00
58622;BME280;44389;51.578;5.456;2023-02-11T01:02:29;103323.03;;;4.80;100.00
58622;BME280;44389;51.578;5.456;2023-02-11T01:04:54;103329.94;;;4.81;100.00
58622;BME280;44389;51.578;5.456;2023-02-11T01:07:20;103337.63;;;4.81;100.00
58622;BME280;44389;51.578;5.456;2023-02-11T01:09:45;103332.50;;;4.81;100.00
58622;BME280;44389;51.578;5.456;2023-02-11T01:12:10;103339.28;;;4.81;100.00
58622;BME280;44389;51.578;5.456;2023-02-11T01:14:36;103335.81;;;4.80;100.00
58622;BME280;44389;51.578;5.456;2023-02-11T01:17:04;103336.72;;;4.81;100.00
58622;BME280;44389;51.578;5.456;2023-02-11T01:19:29;103336.59;;;4.79;100.00
58622;BME280;44389;51.578;5.456;2023-02-11T01:21:54;103350.13;;;4.78;100.00
58622;BME280;44389;51.578;5.456;2023-02-11T01:24:20;103348.31;;;4.77;100.00
58622;BME280;44389;51.578;5.456;2023-02-11T01:26:45;103350.13;;;4.78;100.00
58622;BME280;44389;51.578;5.456;2023-02-11T01:29:10;103347.25;;;4.75;100.00
58622;BME280;44389;51.578;5.456;2023-02-11T01:31:35;103348.91;;;4.74;100.00
58622;BME280;44389;51.578;5.456;2023-02-11T01:34:01;103349.66;;;4.73;100.00
58622;BME280;44389;51.578;5.456;2023-02-11T01:36:26;103329.09;;;4.72;100.00
58622;BME280;44389;51.578;5.456;2023-02-11T01:38:51;103331.50;;;4.70;100.00
58622;BME280;44389;51.578;5.456;2023-02-11T01:41:17;103318.59;;;4.69;100.00
58622;BME280;44389;51.578;5.456;2023-02-11T01:43:45;103310.78;;;4.67;100.00
58622;BME280;44389;51.578;5.456;2023-02-11T01:46:28;103316.50;;;4.65;100.00
58622;BME280;44389;51.578;5.456;2023-02-11T01:49:08;103317.28;;;4.64;100.00
58622;BME280;44389;51.578;5.456;2023-02-11T01:51:37;103307.81;;;4.63;100.00
58622;BME280;44389;51.578;5.456;2023-02-11T01:54:06;103306.00;;;4.61;100.00
58622;BME280;44389;51.578;5.456;2023-02-11T01:56:52;103309.13;;;4.68;100.00
58622;BME280;44389;51.578;5.456;2023-02-11T01:59:53;103303.16;;;4.58;100.00
58622;BME280;44389;51.578;5.456;2023-02-11T02:02:26;103303.78;;;4.56;100.00
58622;BME280;44389;51.578;5.456;2023-02-11T02:05:01;103306.34;;;4.56;100.00
58622;BME280;44389;51.578;5.456;2023-02-11T02:07:43;103292.78;;;4.57;100.00
58622;BME280;44389;51.578;5.456;2023-02-11T02:10:14;103294.19;;;4.53;100.00
58622;BME280;44389;51.578;5.456;2023-02-11T02:12:42;103300.91;;;4.53;100.00
58622;BME280;44389;51.578;5.456;2023-02-11T02:17:54;103310.06;;;4.59;100.00
58622;BME280;44389;51.578;5.456;2023-02-11T02:23:26;103321.34;;;4.53;100.00
58622;BME280;44389;51.578;5.456;2023-02-11T02:31:40;103310.66;;;4.57;100.00
58622;BME280;44389;51.578;5.456;2023-02-11T02:34:22;103305.41;;;4.55;100.00
58622;BME280;44389;51.578;5.456;2023-02-11T02:37:15;103298.81;;;4.57;100.00
58622;BME280;44389;51.578;5.456;2023-02-11T02:39:42;103303.63;;;4.54;100.00
58622;BME280;44389;51.578;5.456;2023-02-11T02:42:09;103309.50;;;4.53;100.00
58622;BME280;44389;51.578;5.456;2023-02-11T02:44:35;103300.91;;;4.53;100.00
58622;BME280;44389;51.578;5.456;2023-02-11T02:47:01;103301.84;;;4.53;100.00
58622;BME280;44389;51.578;5.456;2023-02-11T02:49:26;103309.34;;;4.52;100.00
58622;BME280;44389;51.578;5.456;2023-02-11T02:52:07;103305.16;;;4.52;100.00
58622;BME280;44389;51.578;5.456;2023-02-11T03:08:19;103305.31;;;4.45;100.00
58622;BME280;44389;51.578;5.456;2023-02-11T03:10:50;103305.16;;;4.43;100.00
58622;BME280;44389;51.578;5.456;2023-02-11T03:13:18;103294.81;;;4.42;100.00
58622;BME280;44389;51.578;5.456;2023-02-11T03:15:48;103287.91;;;4.41;100.00
58622;BME280;44389;51.578;5.456;2023-02-11T03:18:17;103287.78;;;4.39;100.00
58622;BME280;44389;51.578;5.456;2023-02-11T03:20:47;103282.53;;;4.38;100.00
58622;BME280;44389;51.578;5.456;2023-02-11T03:23:25;103288.38;;;4.37;100.00
58622;BME280;44389;51.578;5.456;2023-02-11T03:26:08;103278.03;;;4.35;100.00
58622;BME280;44389;51.578;5.456;2023-02-11T03:29:24;103280.41;;;4.34;100.00
58622;BME280;44389;51.578;5.456;2023-02-11T03:32:34;103278.47;;;4.31;100.00
58622;BME280;44389;51.578;5.456;2023-02-11T03:34:37;103286.91;;;4.30;100.00
58622;BME280;44389;51.578;5.456;2023-02-11T03:39:37;103290.97;;;4.28;100.00
58622;BME280;44389;51.578;5.456;2023-02-11T03:42:05;103302.06;;;4.28;100.00
58622;BME280;44389;51.578;5.456;2023-02-11T03:44:37;103295.31;;;4.29;100.00
58622;BME280;44389;51.578;5.456;2023-02-11T03:47:07;103301.31;;;4.29;100.00
58622;BME280;44389;51.578;5.456;2023-02-11T03:49:36;103298.75;;;4.29;100.00
58622;BME280;44389;51.578;5.456;2023-02-11T03:52:04;103303.13;;;4.31;100.00
58622;BME280;44389;51.578;5.456;2023-02-11T03:54:31;103298.75;;;4.29;100.00
58622;BME280;44389;51.578;5.456;2023-02-11T03:56:58;103298.75;;;4.29;100.00
58622;BME280;44389;51.578;5.456;2023-02-11T03:59:25;103292.91;;;4.31;100.00
58622;BME280;44389;51.578;5.456;2023-02-11T04:01:51;103286.91;;;4.30;100.00
58622;BME280;44389;51.578;5.456;2023-02-11T04:04:17;103277.59;;;4.31;100.00
58622;BME280;44389;51.578;5.456;2023-02-11T04:06:42;103279.38;;;4.32;100.00
58622;BME280;44389;51.578;5.456;2023-02-11T04:09:08;103276.09;;;4.33;100.00
58622;BME280;44389;51.578;5.456;2023-02-11T04:11:34;103276.09;;;4.33;100.00
58622;BME280;44389;51.578;5.456;2023-02-11T04:13:59;103267.66;;;4.34;100.00
58622;BME280;44389;51.578;5.456;2023-02-11T04:16:24;103263.47;;;4.34;100.00
58622;BME280;44389;51.578;5.456;2023-02-11T04:18:49;103259.09;;;4.33;100.00
58622;BME280;44389;51.578;5.456;2023-02-11T04:21:15;103247.69;;;4.29;100.00
58622;BME280;44389;51.578;5.456;2023-02-11T04:23:40;103249.22;;;4.27;100.00
58622;BME280;44389;51.578;5.456;2023-02-11T04:26:05;103246.69;;;4.27;100.00
58622;BME280;44389;51.578;5.456;2023-02-11T04:28:31;103243.06;;;4.25;100.00
58622;BME280;44389;51.578;5.456;2023-02-11T04:30:56;103249.97;;;4.26;100.00
58622;BME280;44389;51.578;5.456;2023-02-11T04:33:22;103251.78;;;4.27;100.00
58622;BME280;44389;51.578;5.456;2023-02-11T04:35:47;103248.44;;;4.28;100.00
58622;BME280;44389;51.578;5.456;2023-02-11T04:38:13;103249.38;;;4.29;100.00
58622;BME280;44389;51.578;5.456;2023-02-11T04:40:38;103253.84;;;4.32;100.00
58622;BME280;44389;51.578;5.456;2023-02-11T04:43:04;103253.84;;;4.32;100.00
58622;BME280;44389;51.578;5.456;2023-02-11T04:45:29;103259.84;;;4.32;100.00
58622;BME280;44389;51.578;5.456;2023-02-11T04:47:54;103265.09;;;4.34;100.00
58622;BME280;44389;51.578;5.456;2023-02-11T04:50:20;103271.25;;;4.36;100.00
58622;BME280;44389;51.578;5.456;2023-02-11T04:52:45;103270.50;;;4.37;100.00
58622;BME280;44389;51.578;5.456;2023-02-11T04:55:11;103276.81;;;4.40;100.00
58622;BME280;44389;51.578;5.456;2023-02-11T04:57:36;103276.94;;;4.42;100.00
58622;BME280;44389;51.578;5.456;2023-02-11T05:00:02;103270.91;;;4.41;100.00
58622;BME280;44389;51.578;5.456;2023-02-11T05:02:27;103263.56;;;4.44;100.00
58622;BME280;44389;51.578;5.456;2023-02-11T05:04:53;103274.06;;;4.48;100.00
58622;BME280;44389;51.578;5.456;2023-02-11T05:07:18;103276.47;;;4.46;100.00
58622;BME280;44389;51.578;5.456;2023-02-11T05:09:43;103273.31;;;4.49;100.00
58622;BME280;44389;51.578;5.456;2023-02-11T05:12:09;103269.09;;;4.49;100.00
58622;BME280;44389;51.578;5.456;2023-02-11T05:14:34;103264.28;;;4.52;100.00
58622;BME280;44389;51.578;5.456;2023-02-11T05:16:59;103266.84;;;4.52;100.00
58622;BME280;44389;51.578;5.456;2023-02-11T05:19:25;103266.09;;;4.53;100.00
58622;BME280;44389;51.578;5.456;2023-02-11T05:21:50;103267.88;;;4.54;100.00
58622;BME280;44389;51.578;5.456;2023-02-11T05:24:17;103267.13;;;4.55;100.00
58622;BME280;44389;51.578;5.456;2023-02-11T05:26:43;103268.16;;;4.57;100.00
58622;BME280;44389;51.578;5.456;2023-02-11T05:29:08;103268.03;;;4.56;100.00
58622;BME280;44389;51.578;5.456;2023-02-11T05:31:33;103261.25;;;4.56;100.00
58622;BME280;44389;51.578;5.456;2023-02-11T05:33:59;103256.16;;;4.56;100.00
58622;BME280;44389;51.578;5.456;2023-02-11T05:36:24;103251.53;;;4.52;100.00
58622;BME280;44389;51.578;5.456;2023-02-11T05:38:49;103249.44;;;4.48;100.00
58622;BME280;44389;51.578;5.456;2023-02-11T05:41:15;103252.88;;;4.49;100.00
58622;BME280;44389;51.578;5.456;2023-02-11T05:43:40;103249.34;;;4.38;100.00
58622;BME280;44389;51.578;5.456;2023-02-11T05:46:06;103256.81;;;4.36;100.00
58622;BME280;44389;51.578;5.456;2023-02-11T05:48:32;103262.53;;;4.34;100.00
58622;BME280;44389;51.578;5.456;2023-02-11T05:50:58;103257.31;;;4.32;100.00
58622;BME280;44389;51.578;5.456;2023-02-11T05:53:23;103260.78;;;4.33;100.00
58622;BME280;44389;51.578;5.456;2023-02-11T05:55:48;103256.41;;;4.32;100.00
58622;BME280;44389;51.578;5.456;2023-02-11T05:58:14;103264.81;;;4.31;100.00
58622;BME280;44389;51.578;5.456;2023-02-11T06:00:39;103258.97;;;4.32;100.00
58622;BME280;44389;51.578;5.456;2023-02-11T06:03:04;103264.34;;;4.35;100.00
58622;BME280;44389;51.578;5.456;2023-02-11T06:05:30;103264.66;;;4.38;100.00
58622;BME280;44389;51.578;5.456;2023-02-11T06:07:56;103268.22;;;4.40;100.00
58622;BME280;44389;51.578;5.456;2023-02-11T06:10:21;103266.00;;;4.43;100.00
58622;BME280;44389;51.578;5.456;2023-02-11T06:12:47;103264.31;;;4.43;100.00
58622;BME280;44389;51.578;5.456;2023-02-11T06:15:12;103268.53;;;4.43;100.00
58622;BME280;44389;51.578;5.456;2023-02-11T06:17:38;103263.44;;;4.43;100.00
58622;BME280;44389;51.578;5.456;2023-02-11T06:20:05;103271.22;;;4.44;100.00
58622;BME280;44389;51.578;5.456;2023-02-11T06:22:31;103270.63;;;4.47;100.00
58622;BME280;44389;51.578;5.456;2023-02-11T06:24:57;103272.44;;;4.48;100.00
58622;BME280;44389;51.578;5.456;2023-02-11T06:27:22;103272.69;;;4.51;100.00
58622;BME280;44389;51.578;5.456;2023-02-11T06:29:47;103280.34;;;4.51;100.00
58622;BME280;44389;51.578;5.456;2023-02-11T06:32:13;103280.63;;;4.54;100.00
58622;BME280;44389;51.578;5.456;2023-02-11T06:34:39;103283.34;;;4.56;100.00
58622;BME280;44389;51.578;5.456;2023-02-11T06:37:05;103271.47;;;4.56;100.00
58622;BME280;44389;51.578;5.456;2023-02-11T06:39:30;103271.47;;;4.56;100.00
58622;BME280;44389;51.578;5.456;2023-02-11T06:41:56;103266.50;;;4.58;100.00
58622;BME280;44389;51.578;5.456;2023-02-11T06:44:21;103279.41;;;4.59;100.00
58622;BME280;44389;51.578;5.456;2023-02-11T06:46:46;103271.75;;;4.59;100.00
58622;BME280;44389;51.578;5.456;2023-02-11T06:49:12;103278.66;;;4.60;100.00
58622;BME280;44389;51.578;5.456;2023-02-11T06:51:37;103280.47;;;4.61;100.00
58622;BME280;44389;51.578;5.456;2023-02-11T06:54:04;103282.25;;;4.63;100.00
58622;BME280;44389;51.578;5.456;2023-02-11T06:56:29;103284.06;;;4.64;100.00
58622;BME280;44389;51.578;5.456;2023-02-11T06:58:55;103290.94;;;4.65;100.00
58622;BME280;44389;51.578;5.456;2023-02-11T07:01:21;103296.97;;;4.65;100.00
58622;BME280;44389;51.578;5.456;2023-02-11T07:03:48;103287.66;;;4.66;100.00
58622;BME280;44389;51.578;5.456;2023-02-11T07:06:16;103293.81;;;4.68;100.00
58622;BME280;44389;51.578;5.456;2023-02-11T07:08:42;103290.50;;;4.69;100.00
58622;BME280;44389;51.578;5.456;2023-02-11T07:11:13;103293.19;;;4.70;100.00
58622;BME280;44389;51.578;5.456;2023-02-11T07:13:39;103292.44;;;4.71;100.00
58622;BME280;44389;51.578;5.456;2023-02-11T07:16:06;103300.25;;;4.73;100.00
58622;BME280;44389;51.578;5.456;2023-02-11T07:18:32;103302.94;;;4.74;100.00
58622;BME280;44389;51.578;5.456;2023-02-11T07:20:57;103304.75;;;4.75;100.00
58622;BME280;44389;51.578;5.456;2023-02-11T07:23:23;103307.44;;;4.77;100.00
58622;BME280;44389;51.578;5.456;2023-02-11T07:25:48;103311.03;;;4.79;100.00
58622;BME280;44389;51.578;5.456;2023-02-11T07:28:13;103308.63;;;4.81;100.00
58622;BME280;44389;51.578;5.456;2023-02-11T07:30:38;103306.94;;;4.81;100.00
58622;BME280;44389;51.578;5.456;2023-02-11T07:33:04;103308.00;;;4.83;100.00
58622;BME280;44389;51.578;5.456;2023-02-11T07:35:29;103309.81;;;4.84;100.00
58622;BME280;44389;51.578;5.456;2023-02-11T07:37:54;103320.31;;;4.87;100.00
58622;BME280;44389;51.578;5.456;2023-02-11T07:40:19;103316.06;;;4.88;100.00
58622;BME280;44389;51.578;5.456;2023-02-11T07:42:45;103315.47;;;4.90;100.00
58622;BME280;44389;51.578;5.456;2023-02-11T07:45:10;103326.75;;;4.92;100.00
58622;BME280;44389;51.578;5.456;2023-02-11T07:47:36;103326.00;;;4.93;100.00
58622;BME280;44389;51.578;5.456;2023-02-11T07:50:02;103326.13;;;4.95;100.00
58622;BME280;44389;51.578;5.456;2023-02-11T07:52:29;103326.25;;;4.97;100.00
58622;BME280;44389;51.578;5.456;2023-02-11T07:54:54;103328.19;;;4.99;100.00
58622;BME280;44389;51.578;5.456;2023-02-11T07:57:19;103336.00;;;5.01;100.00
58622;BME280;44389;51.578;5.456;2023-02-11T07:59:45;103335.25;;;5.02;100.00
58622;BME280;44389;51.578;5.456;2023-02-11T08:02:10;103342.31;;;5.04;100.00
58622;BME280;44389;51.578;5.456;2023-02-11T08:04:35;103340.66;;;5.05;100.00
58622;BME280;44389;51.578;5.456;2023-02-11T08:07:00;103340.66;;;5.05;100.00
58622;BME280;44389;51.578;5.456;2023-02-11T08:09:26;103344.25;;;5.07;100.00
58622;BME280;44389;51.578;5.456;2023-02-11T08:11:51;103339.13;;;5.07;100.00
58622;BME280;44389;51.578;5.456;2023-02-11T08:14:17;103340.03;;;5.07;100.00
58622;BME280;44389;51.578;5.456;2023-02-11T08:16:44;103335.97;;;5.09;100.00
58622;BME280;44389;51.578;5.456;2023-02-11T08:19:12;103340.31;;;5.10;100.00
58622;BME280;44389;51.578;5.456;2023-02-11T08:21:38;103336.09;;;5.11;100.00
58622;BME280;44389;51.578;5.456;2023-02-11T08:24:04;103342.25;;;5.13;100.00
58622;BME280;44389;51.578;5.456;2023-02-11T08:26:31;103346.63;;;5.14;100.00
58622;BME280;44389;51.578;5.456;2023-02-11T08:28:59;103350.19;;;5.16;100.00
58622;BME280;44389;51.578;5.456;2023-02-11T08:31:32;103353.81;;;5.18;100.00
58622;BME280;44389;51.578;5.456;2023-02-11T08:33:58;103349.88;;;5.22;100.00
58622;BME280;44389;51.578;5.456;2023-02-11T08:36:26;103355.13;;;5.23;100.00
58622;BME280;44389;51.578;5.456;2023-02-11T08:38:57;103357.94;;;5.26;100.00
58622;BME280;44389;51.578;5.456;2023-02-11T08:41:24;103359.75;;;5.27;100.00
58622;BME280;44389;51.578;5.456;2023-02-11T08:43:49;103364.38;;;5.32;100.00
58622;BME280;44389;51.578;5.456;2023-02-11T08:46:16;103360.31;;;5.34;100.00
58622;BME280;44389;51.578;5.456;2023-02-11T08:48:43;103363.91;;;5.36;100.00
58622;BME280;44389;51.578;5.456;2023-02-11T08:51:12;103359.09;;;5.39;100.00
58622;BME280;44389;51.578;5.456;2023-02-11T08:53:38;103357.56;;;5.41;100.00
58622;BME280;44389;51.578;5.456;2023-02-11T08:56:03;103359.66;;;5.45;100.00
58622;BME280;44389;51.578;5.456;2023-02-11T08:58:30;103353.91;;;5.48;100.00
58622;BME280;44389;51.578;5.456;2023-02-11T09:00:55;103358.41;;;5.50;100.00
58622;BME280;44389;51.578;5.456;2023-02-11T09:03:20;103368.16;;;5.54;100.00
58622;BME280;44389;51.578;5.456;2023-02-11T09:05:47;103370.22;;;5.58;100.00
58622;BME280;44389;51.578;5.456;2023-02-11T09:08:14;103365.94;;;5.68;100.00
58622;BME280;44389;51.578;5.456;2023-02-11T09:10:39;103362.81;;;5.61;100.00
58622;BME280;44389;51.578;5.456;2023-02-11T09:13:05;103367.94;;;5.61;100.00
58622;BME280;44389;51.578;5.456;2023-02-11T09:15:31;103365.66;;;5.65;100.00
58622;BME280;44389;51.578;5.456;2023-02-11T09:17:57;103360.69;;;5.66;100.00
58622;BME280;44389;51.578;5.456;2023-02-11T09:20:23;103370.28;;;5.69;100.00
58622;BME280;44389;51.578;5.456;2023-02-11T09:22:48;103369.53;;;5.70;100.00
58622;BME280;44389;51.578;5.456;2023-02-11T09:25:14;103370.56;;;5.72;100.00
58622;BME280;44389;51.578;5.456;2023-02-11T09:27:39;103373.28;;;5.73;100.00
58622;BME280;44389;51.578;5.456;2023-02-11T09:30:05;103381.09;;;5.75;100.00
58622;BME280;44389;51.578;5.456;2023-02-11T09:32:30;103388.28;;;5.79;100.00
58622;BME280;44389;51.578;5.456;2023-02-11T09:34:55;103385.97;;;5.82;100.00
58622;BME280;44389;51.578;5.456;2023-02-11T09:37:21;103388.09;;;5.86;100.00
58622;BME280;44389;51.578;5.456;2023-02-11T09:39:46;103399.47;;;5.90;100.00
58622;BME280;44389;51.578;5.456;2023-02-11T09:44:38;103400.16;;;5.98;100.00
58622;BME280;44389;51.578;5.456;2023-02-11T09:47:06;103398.69;;;6.00;100.00
58622;BME280;44389;51.578;5.456;2023-02-11T09:49:46;103401.25;;;6.00;100.00
58622;BME280;44389;51.578;5.456;2023-02-11T09:52:32;103397.16;;;6.02;100.00
58622;BME280;44389;51.578;5.456;2023-02-11T09:55:05;103407.66;;;6.05;100.00
58622;BME280;44389;51.578;5.456;2023-02-11T09:57:35;103405.88;;;6.04;100.00
58622;BME280;44389;51.578;5.456;2023-02-11T10:00:21;103409.47;;;6.06;100.00
58622;BME280;44389;51.578;5.456;2023-02-11T10:03:18;103402.81;;;6.08;100.00
58622;BME280;44389;51.578;5.456;2023-02-11T10:06:22;103403.38;;;6.14;100.00
58622;BME280;44389;51.578;5.456;2023-02-11T10:16:54;103412.28;;;6.28;100.00
58622;BME280;44389;51.578;5.456;2023-02-11T10:20:21;103428.19;;;6.34;100.00
58622;BME280;44389;51.578;5.456;2023-02-11T10:22:31;103427.28;;;6.34;100.00
58622;BME280;44389;51.578;5.456;2023-02-11T10:25:01;103430.00;;;6.35;100.00
58622;BME280;44389;51.578;5.456;2023-02-11T10:27:35;103439.00;;;6.40;100.00
58622;BME280;44389;51.578;5.456;2023-02-11T10:30:06;103438.34;;;6.43;100.00
58622;BME280;44389;51.578;5.456;2023-02-11T10:32:43;103443.47;;;6.43;100.00
58622;BME280;44389;51.578;5.456;2023-02-11T10:35:16;103442.56;;;6.42;100.00
58622;BME280;44389;51.578;5.456;2023-02-11T10:37:43;103442.84;;;6.46;100.00
58622;BME280;44389;51.578;5.456;2023-02-11T10:40:16;103450.53;;;6.46;100.00
58622;BME280;44389;51.578;5.456;2023-02-11T10:42:45;103457.31;;;6.45;100.00
58622;BME280;44389;51.578;5.456;2023-02-11T10:45:27;103458.63;;;6.50;100.00
58622;BME280;44389;51.578;5.456;2023-02-11T10:47:54;103449.91;;;6.48;100.00
58622;BME280;44389;51.578;5.456;2023-02-11T10:50:24;103457.09;;;6.52;100.00
58622;BME280;44389;51.578;5.456;2023-02-11T10:52:50;103461.72;;;6.56;100.00
58622;BME280;44389;51.578;5.456;2023-02-11T10:55:19;103461.72;;;6.56;100.00
58622;BME280;44389;51.578;5.456;2023-02-11T10:57:56;103466.75;;;6.65;100.00
58622;BME280;44389;51.578;5.456;2023-02-11T11:00:36;103469.59;;;6.68;100.00
58622;BME280;44389;51.578;5.456;2023-02-11T11:03:23;103466.69;;;6.74;100.00
58622;BME280;44389;51.578;5.456;2023-02-11T11:05:54;103466.69;;;6.74;100.00
58622;BME280;44389;51.578;5.456;2023-02-11T11:08:20;103470.88;;;6.73;100.00
58622;BME280;44389;51.578;5.456;2023-02-11T11:11:03;103469.91;;;6.82;100.00
58622;BME280;44389;51.578;5.456;2023-02-11T11:13:34;103472.09;;;6.87;100.00
58622;BME280;44389;51.578;5.456;2023-02-11T11:18:40;103468.91;;;6.90;100.00
58622;BME280;44389;51.578;5.456;2023-02-11T11:21:24;103475.44;;;6.97;100.00
58622;BME280;44389;51.578;5.456;2023-02-11T11:23:51;103471.50;;;7.00;100.00
58622;BME280;44389;51.578;5.456;2023-02-11T11:26:19;103478.31;;;7.00;100.00
58622;BME280;44389;51.578;5.456;2023-02-11T11:31:21;103477.41;;;7.09;100.00
58622;BME280;44389;51.578;5.456;2023-02-11T11:33:50;103472.16;;;7.08;100.00
58622;BME280;44389;51.578;5.456;2023-02-11T11:36:20;103480.47;;;7.05;100.00
58622;BME280;44389;51.578;5.456;2023-02-11T11:38:57;103479.84;;;7.08;100.00
58622;BME280;44389;51.578;5.456;2023-02-11T11:41:27;103478.28;;;7.10;100.00
58622;BME280;44389;51.578;5.456;2023-02-11T11:43:54;103488.56;;;7.20;100.00
58622;BME280;44389;51.578;5.456;2023-02-11T11:46:26;103488.09;;;7.24;100.00
58622;BME280;44389;51.578;5.456;2023-02-11T11:48:55;103483.22;;;7.28;100.00
58622;BME280;44389;51.578;5.456;2023-02-11T11:51:24;103479.50;;;7.34;100.00
58622;BME280;44389;51.578;5.456;2023-02-11T11:53:59;103480.44;;;7.35;100.00
58622;BME280;44389;51.578;5.456;2023-02-11T11:56:27;103474.66;;;7.37;100.00
58622;BME280;44389;51.578;5.456;2023-02-11T11:58:54;103469.88;;;7.32;100.00
58622;BME280;44389;51.578;5.456;2023-02-11T12:07:36;103468.38;;;7.34;100.00
58622;BME280;44389;51.578;5.456;2023-02-11T12:10:27;103469.00;;;7.41;100.00
58622;BME280;44389;51.578;5.456;2023-02-11T12:13:08;103469.03;;;7.52;100.00
58622;BME280;44389;51.578;5.456;2023-02-11T12:23:46;103448.63;;;7.64;100.00
58622;BME280;44389;51.578;5.456;2023-02-11T12:26:21;103442.44;;;7.72;100.00
58622;BME280;44389;51.578;5.456;2023-02-11T12:28:52;103439.09;;;7.73;100.00
58622;BME280;44389;51.578;5.456;2023-02-11T12:31:37;103446.03;;;7.84;100.00
58622;BME280;44389;51.578;5.456;2023-02-11T12:34:20;103437.81;;;7.78;100.00
58622;BME280;44389;51.578;5.456;2023-02-11T12:39:50;103432.44;;;7.85;100.00
58622;BME280;44389;51.578;5.456;2023-02-11T12:42:28;103436.28;;;7.90;100.00
58622;BME280;44389;51.578;5.456;2023-02-11T12:45:34;103427.78;;;8.02;100.00
58622;BME280;44389;51.578;5.456;2023-02-11T12:51:00;103429.72;;;8.37;100.00
58622;BME280;44389;51.578;5.456;2023-02-11T12:56:20;103420.50;;;8.71;100.00
58622;BME280;44389;51.578;5.456;2023-02-11T12:58:51;103416.25;;;8.72;100.00
58622;BME280;44389;51.578;5.456;2023-02-11T13:01:22;103422.03;;;8.69;100.00
58622;BME280;44389;51.578;5.456;2023-02-11T13:04:05;103420.28;;;8.80;100.00
58622;BME280;44389;51.578;5.456;2023-02-11T13:06:42;103420.34;;;8.92;100.00
58622;BME280;44389;51.578;5.456;2023-02-11T13:09:13;103430.25;;;8.76;100.00
58622;BME280;44389;51.578;5.456;2023-02-11T13:11:46;103426.69;;;8.63;100.00
58622;BME280;44389;51.578;5.456;2023-02-11T13:14:36;103428.00;;;8.58;100.00
58622;BME280;44389;51.578;5.456;2023-02-11T13:17:13;103422.03;;;8.47;100.00
58622;BME280;44389;51.578;5.456;2023-02-11T13:19:51;103421.38;;;8.39;100.00
58622;BME280;44389;51.578;5.456;2023-02-11T13:22:47;103429.19;;;8.41;100.00
58622;BME280;44389;51.578;5.456;2023-02-11T13:25:35;103428.81;;;8.36;100.00
58622;BME280;44389;51.578;5.456;2023-02-11T13:30:39;103416.00;;;8.26;100.00
58622;BME280;44389;51.578;5.456;2023-02-11T13:33:40;103428.19;;;8.29;100.00
58622;BME280;44389;51.578;5.456;2023-02-11T13:36:15;103423.47;;;8.23;100.00
58622;BME280;44389;51.578;5.456;2023-02-11T13:38:51;103422.84;;;8.26;100.00
58622;BME280;44389;51.578;5.456;2023-02-11T13:44:02;103424.94;;;8.41;100.00
58622;BME280;44389;51.578;5.456;2023-02-11T13:46:40;103421.72;;;8.44;100.00
58622;BME280;44389;51.578;5.456;2023-02-11T13:49:36;103420.44;;;8.49;100.00
58622;BME280;44389;51.578;5.456;2023-02-11T13:52:15;103416.09;;;8.48;100.00
58622;BME280;44389;51.578;5.456;2023-02-11T13:54:45;103414.59;;;8.62;100.00
58622;BME280;44389;51.578;5.456;2023-02-11T13:59:48;103412.41;;;8.67;100.00
58622;BME280;44389;51.578;5.456;2023-02-11T14:02:36;103413.13;;;8.76;100.00
58622;BME280;44389;51.578;5.456;2023-02-11T14:05:23;103414.97;;;8.89;100.00
58622;BME280;44389;51.578;5.456;2023-02-11T14:11:00;103426.47;;;8.82;100.00
58622;BME280;44389;51.578;5.456;2023-02-11T14:13:30;103425.94;;;8.86;100.00
58622;BME280;44389;51.578;5.456;2023-02-11T14:16:23;103431.28;;;8.89;100.00
58622;BME280;44389;51.578;5.456;2023-02-11T14:21:20;103426.41;;;8.93;100.00
58622;BME280;44389;51.578;5.456;2023-02-11T14:23:47;103426.75;;;8.97;100.00